createdAt,value
2024-02-07T00:02:32.028Z,100122.78
2024-02-07T00:05:34.126Z,100133.41
2024-02-07T00:08:36.065Z,100118.56
2024-02-07T00:11:38.374Z,100127.84
2024-02-07T00:14:40.599Z,100127.09
2024-02-07T00:17:42.924Z,100126.59
2024-02-07T00:20:45.406Z,100124.69
2024-02-07T00:23:47.598Z,100122.37
2024-02-07T00:26:50.040Z,100116.97
2024-02-07T00:29:51.697Z,100106.94
2024-02-07T00:32:53.512Z,100108.37
2024-02-07T00:35:55.948Z,100109.53
2024-02-07T00:38:57.952Z,100097.03
2024-02-07T00:42:00.595Z,100102.41
2024-02-07T00:45:03.392Z,100098.03
2024-02-07T00:48:05.891Z,100091.50
2024-02-07T00:51:08.669Z,100084.19
2024-02-07T00:54:11.373Z,100092.69
2024-02-07T00:57:13.641Z,100091.00
2024-02-07T01:00:16.376Z,100093.31
2024-02-07T01:03:18.555Z,100093.22
2024-02-07T01:06:21.167Z,100081.72
2024-02-07T01:09:23.338Z,100081.50
2024-02-07T01:12:25.562Z,100075.44
2024-02-07T01:15:27.364Z,100068.91
2024-02-07T01:18:29.187Z,100075.19
2024-02-07T01:21:31.419Z,100081.75
2024-02-07T01:24:33.429Z,100075.41
2024-02-07T01:27:35.257Z,100073.56
2024-02-07T01:30:37.142Z,100064.78
2024-02-07T01:33:39.520Z,100055.75
2024-02-07T01:36:49.052Z,100061.94
2024-02-07T01:39:51.311Z,100065.78
2024-02-07T01:42:53.472Z,100053.44
2024-02-07T01:45:55.208Z,100057.87
2024-02-07T01:48:56.855Z,100050.94
2024-02-07T01:51:59.144Z,100053.06
2024-02-07T01:55:00.873Z,100047.31
2024-02-07T01:58:04.547Z,100048.06
2024-02-07T02:01:07.041Z,100048.66
2024-02-07T02:04:08.878Z,100062.19
2024-02-07T02:07:11.038Z,100053.72
2024-02-07T02:10:14.737Z,100052.31
2024-02-07T02:13:16.834Z,100053.44
2024-02-07T02:16:19.440Z,100054.28
2024-02-07T02:19:21.680Z,100046.91
2024-02-07T02:22:51.666Z,100035.94
2024-02-07T02:26:12.559Z,100026.59
2024-02-07T02:29:26.887Z,100033.81
2024-02-07T02:32:30.030Z,100035.72
2024-02-07T02:35:32.834Z,100041.44
2024-02-07T02:38:36.474Z,100039.44
2024-02-07T02:41:38.159Z,100032.31
2024-02-07T02:44:40.325Z,100023.81
2024-02-07T02:47:43.051Z,100022.91
2024-02-07T02:50:45.679Z,100016.37
2024-02-07T02:53:48.303Z,100004.97
2024-02-07T02:56:50.457Z,100014.69
2024-02-07T02:59:52.635Z,100000.59
2024-02-07T03:02:56.708Z,100005.12
2024-02-07T03:05:59.532Z,100014.00
2024-02-07T03:09:01.683Z,100006.28
2024-02-07T03:12:03.618Z,100003.13
2024-02-07T03:15:05.848Z,100001.84
2024-02-07T03:18:10.765Z,100004.28
2024-02-07T03:21:12.472Z,100005.38
2024-02-07T03:24:14.187Z,100001.12
2024-02-07T03:27:16.399Z,99998.19
2024-02-07T03:30:20.284Z,99999.47
2024-02-07T03:33:22.682Z,100001.50
2024-02-07T03:36:25.293Z,100002.53
2024-02-07T03:39:27.586Z,100007.78
2024-02-07T03:42:29.751Z,99999.63
2024-02-07T03:45:31.999Z,99999.97
2024-02-07T03:48:37.914Z,99983.84
2024-02-07T03:51:41.643Z,100006.66
2024-02-07T03:54:44.029Z,100015.06
2024-02-07T03:57:45.872Z,100004.97
2024-02-07T04:00:48.090Z,99995.22
2024-02-07T04:03:50.511Z,99992.13
2024-02-07T04:06:52.380Z,99980.81
2024-02-07T04:09:54.205Z,99974.47
2024-02-07T04:12:56.329Z,99968.84
2024-02-07T04:15:58.502Z,99970.78
2024-02-07T04:19:01.127Z,99974.78
2024-02-07T04:22:03.164Z,99973.97
2024-02-07T04:25:05.426Z,99969.81
2024-02-07T04:28:07.157Z,99972.22
2024-02-07T04:31:08.904Z,99967.47
2024-02-07T04:34:10.932Z,99976.03
2024-02-07T04:37:13.106Z,99976.31
2024-02-07T04:40:14.977Z,99974.62
2024-02-07T04:43:17.232Z,99979.69
2024-02-07T04:46:19.488Z,99983.06
2024-02-07T04:49:21.291Z,99964.06
2024-02-07T04:52:23.650Z,99976.47
2024-02-07T04:55:26.001Z,99969.28
2024-02-07T04:58:28.196Z,99962.22
2024-02-07T05:01:29.941Z,99973.62
2024-02-07T05:04:32.143Z,99965.84
2024-02-07T05:07:34.287Z,99974.00
2024-02-07T05:10:36.692Z,99971.63
2024-02-07T05:13:38.963Z,99950.53
2024-02-07T05:16:41.231Z,99974.88
2024-02-07T05:19:43.011Z,99968.28
2024-02-07T05:22:46.356Z,99939.00
2024-02-07T05:25:48.608Z,99961.66
2024-02-07T05:28:51.077Z,99960.12
2024-02-07T05:31:55.560Z,99955.34
2024-02-07T05:34:58.465Z,99951.41
2024-02-07T05:38:02.623Z,99957.56
2024-02-07T05:41:05.035Z,99967.59
2024-02-07T05:44:07.151Z,99962.50
2024-02-07T05:47:09.375Z,99961.13
2024-02-07T05:50:11.830Z,99946.75
2024-02-07T05:53:13.569Z,99956.28
2024-02-07T05:56:15.844Z,99958.38
2024-02-07T05:59:18.526Z,99953.72
2024-02-07T06:02:20.841Z,99948.63
2024-02-07T06:05:23.139Z,99951.72
2024-02-07T06:08:25.704Z,99952.03
2024-02-07T06:11:27.752Z,99942.31
2024-02-07T06:14:29.753Z,99955.44
2024-02-07T06:17:32.079Z,99963.66
2024-02-07T06:20:34.386Z,99967.47
2024-02-07T06:23:36.498Z,99967.84
2024-02-07T06:26:39.022Z,99973.19
2024-02-07T06:29:43.351Z,99956.56
2024-02-07T06:32:46.421Z,99956.00
2024-02-07T06:35:48.135Z,99960.59
2024-02-07T06:38:49.761Z,99952.84
2024-02-07T06:41:51.822Z,99949.06
2024-02-07T06:44:54.039Z,99954.44
2024-02-07T06:47:55.758Z,99947.87
2024-02-07T06:50:58.076Z,99967.09
2024-02-07T06:54:00.040Z,99968.28
2024-02-07T06:57:04.719Z,99977.28
2024-02-07T07:00:07.829Z,99978.81
2024-02-07T07:03:09.602Z,99977.28
2024-02-07T07:06:12.080Z,99976.00
2024-02-07T07:09:13.971Z,99977.00
2024-02-07T07:12:16.970Z,99956.59
2024-02-07T07:15:26.509Z,99962.78
2024-02-07T07:18:35.498Z,99950.41
2024-02-07T07:21:37.264Z,99946.34
2024-02-07T07:24:39.887Z,99940.72
2024-02-07T07:27:42.142Z,99927.38
2024-02-07T07:30:44.201Z,99917.78
2024-02-07T07:33:49.534Z,99927.47
2024-02-07T07:36:54.212Z,99922.94
2024-02-07T07:39:56.206Z,99928.94
2024-02-07T07:42:58.083Z,99933.75
2024-02-07T07:46:00.883Z,99933.88
2024-02-07T07:49:03.303Z,99904.69
2024-02-07T07:52:05.801Z,99917.91
2024-02-07T07:55:07.949Z,99934.69
2024-02-07T07:58:10.098Z,99927.13
2024-02-07T08:01:16.404Z,99920.47
2024-02-07T08:04:18.366Z,99927.16
2024-02-07T08:07:20.236Z,99916.94
2024-02-07T08:10:24.267Z,99927.59
2024-02-07T08:13:26.132Z,99924.47
2024-02-07T08:16:28.591Z,99927.00
2024-02-07T08:19:30.539Z,99925.69
2024-02-07T08:22:33.629Z,99923.19
2024-02-07T08:25:36.144Z,99917.75
2024-02-07T08:28:38.250Z,99915.75
2024-02-07T08:31:40.255Z,99905.25
2024-02-07T08:34:42.566Z,99902.50
2024-02-07T08:37:46.009Z,99896.53
2024-02-07T08:40:48.283Z,99897.53
2024-02-07T08:43:53.741Z,99890.81
2024-02-07T08:46:55.992Z,99888.81
2024-02-07T08:49:58.277Z,99893.50
2024-02-07T08:53:00.921Z,99872.28
2024-02-07T08:56:03.470Z,99878.03
2024-02-07T08:59:08.965Z,99866.00
2024-02-07T09:02:10.784Z,99873.94
2024-02-07T09:05:13.320Z,99868.78
2024-02-07T09:08:15.764Z,99842.16
2024-02-07T09:11:17.893Z,99852.44
2024-02-07T09:14:20.264Z,99855.84
2024-02-07T09:17:24.122Z,99848.66
2024-02-07T09:20:25.863Z,99853.03
2024-02-07T09:23:28.015Z,99854.69
2024-02-07T09:26:33.936Z,99853.41
2024-02-07T09:29:36.051Z,99857.41
2024-02-07T09:32:42.037Z,99855.75
2024-02-07T09:35:44.286Z,99851.72
2024-02-07T09:38:46.337Z,99849.53
2024-02-07T09:41:50.667Z,99848.69
2024-02-07T09:44:53.736Z,99841.28
2024-02-07T09:48:16.263Z,99835.16
2024-02-07T09:51:20.301Z,99836.25
2024-02-07T09:54:24.952Z,99819.91
2024-02-07T09:57:27.040Z,99817.59
2024-02-07T10:00:28.984Z,99825.31
2024-02-07T10:03:34.364Z,99813.25
2024-02-07T10:06:37.244Z,99831.84
2024-02-07T10:09:39.748Z,99816.72
2024-02-07T10:12:41.418Z,99787.50
2024-02-07T10:15:45.313Z,99803.37
2024-02-07T10:18:47.142Z,99791.84
2024-02-07T10:21:49.379Z,99779.69
2024-02-07T10:24:51.901Z,99770.34
2024-02-07T10:28:04.354Z,99774.50
2024-02-07T10:31:06.517Z,99780.13
2024-02-07T10:34:19.625Z,99763.38
2024-02-07T10:37:21.691Z,99763.50
2024-02-07T10:40:26.518Z,99758.19
2024-02-07T10:43:31.940Z,99738.38
2024-02-07T10:46:34.282Z,99740.31
2024-02-07T10:49:36.392Z,99728.03
2024-02-07T10:52:41.947Z,99724.34
2024-02-07T10:55:45.794Z,99725.97
2024-02-07T10:58:49.824Z,99720.78
2024-02-07T11:01:53.780Z,99719.94
2024-02-07T11:05:00.594Z,99712.81
2024-02-07T11:08:06.004Z,99703.37
2024-02-07T11:11:09.511Z,99701.88
2024-02-07T11:14:11.967Z,99701.41
2024-02-07T11:17:16.568Z,99706.06
2024-02-07T11:20:21.947Z,99698.09
2024-02-07T11:23:31.735Z,99695.78
2024-02-07T11:26:36.163Z,99681.09
2024-02-07T11:29:38.138Z,99678.44
2024-02-07T11:32:39.913Z,99679.88
2024-02-07T11:35:42.294Z,99679.44
2024-02-07T11:38:54.798Z,99675.41
2024-02-07T11:41:58.289Z,99677.72
2024-02-07T11:45:00.751Z,99664.28
2024-02-07T11:48:03.182Z,99657.37
2024-02-07T11:51:10.508Z,99658.84
2024-02-07T11:54:20.279Z,99654.84
2024-02-07T11:57:22.964Z,99656.25
2024-02-07T12:00:25.479Z,99643.22
2024-02-07T12:03:27.678Z,99648.16
2024-02-07T12:06:29.855Z,99644.09
2024-02-07T12:09:33.465Z,99645.84
2024-02-07T12:12:35.988Z,99636.19
2024-02-07T12:15:38.620Z,99636.31
2024-02-07T12:18:40.772Z,99617.44
2024-02-07T12:21:44.514Z,99629.94
2024-02-07T12:24:46.844Z,99630.75
2024-02-07T12:27:48.616Z,99623.53
2024-02-07T12:30:50.921Z,99615.81
2024-02-07T12:37:19.062Z,99629.81
2024-02-07T12:40:23.819Z,99625.28
2024-02-07T12:43:36.532Z,99613.84
2024-02-07T12:46:42.287Z,99620.94
2024-02-07T12:49:45.385Z,99606.28
2024-02-07T12:52:48.463Z,99596.03
2024-02-07T12:56:00.524Z,99590.53
2024-02-07T12:59:02.557Z,99582.44
2024-02-07T13:02:09.699Z,99583.66
2024-02-07T13:05:12.187Z,99573.53
2024-02-07T13:08:14.589Z,99574.00
2024-02-07T13:11:19.991Z,99566.75
2024-02-07T13:14:22.887Z,99553.16
2024-02-07T13:17:33.924Z,99571.94
2024-02-07T13:20:35.943Z,99572.81
2024-02-07T13:23:38.232Z,99577.94
2024-02-07T13:26:40.274Z,99571.25
2024-02-07T13:29:42.031Z,99576.25
2024-02-07T13:32:44.821Z,99570.38
2024-02-07T13:35:46.764Z,99584.19
2024-02-07T13:38:50.018Z,99566.87
2024-02-07T13:41:52.325Z,99571.78
2024-02-07T13:44:54.260Z,99565.53
2024-02-07T13:47:56.160Z,99554.47
2024-02-07T13:51:04.660Z,99557.19
2024-02-07T13:54:11.468Z,99557.13
2024-02-07T13:57:14.340Z,99540.41
2024-02-07T14:00:17.741Z,99555.00
2024-02-07T14:03:19.711Z,99557.91
2024-02-07T14:06:21.611Z,99544.53
2024-02-07T14:09:23.819Z,99550.97
2024-02-07T14:12:27.452Z,99554.03
2024-02-07T14:15:31.709Z,99555.91
2024-02-07T14:18:33.797Z,99550.25
2024-02-07T14:21:36.428Z,99546.28
2024-02-07T14:24:38.552Z,99543.97
2024-02-07T14:27:41.626Z,99543.53
2024-02-07T14:30:43.685Z,99529.75
2024-02-07T14:33:45.416Z,99540.00
2024-02-07T14:36:47.200Z,99530.56
2024-02-07T14:39:48.956Z,99523.44
2024-02-07T14:42:51.193Z,99513.06
2024-02-07T14:45:53.536Z,99520.94
2024-02-07T14:48:55.809Z,99515.53
2024-02-07T14:51:58.537Z,99516.31
2024-02-07T14:55:00.928Z,99516.50
2024-02-07T14:58:02.954Z,99509.50
2024-02-07T15:01:05.226Z,99513.81
2024-02-07T15:04:11.109Z,99510.91
2024-02-07T15:07:13.531Z,99514.28
2024-02-07T15:10:28.018Z,99510.88
2024-02-07T15:13:30.014Z,99500.03
2024-02-07T15:16:31.848Z,99490.00
2024-02-07T15:19:34.107Z,99495.16
2024-02-07T15:22:40.191Z,99500.47
2024-02-07T15:25:43.576Z,99492.63
2024-02-07T15:28:45.986Z,99498.16
2024-02-07T15:31:48.339Z,99491.16
2024-02-07T15:34:50.342Z,99485.97
2024-02-07T15:37:53.148Z,99483.06
2024-02-07T15:40:56.216Z,99478.16
2024-02-07T15:43:58.366Z,99472.50
2024-02-07T15:47:00.924Z,99474.22
2024-02-07T15:50:03.567Z,99472.97
2024-02-07T15:53:05.936Z,99472.28
2024-02-07T15:56:08.637Z,99470.44
2024-02-07T15:59:10.475Z,99473.13
2024-02-07T16:02:12.702Z,99471.91
2024-02-07T16:05:16.004Z,99478.75
2024-02-07T16:08:18.608Z,99472.03
2024-02-07T16:11:20.641Z,99477.19
2024-02-07T16:14:23.639Z,99474.06
2024-02-07T16:17:26.112Z,99480.84
2024-02-07T16:20:28.279Z,99481.13
2024-02-07T16:23:30.514Z,99487.06
2024-02-07T16:26:32.689Z,99484.47
2024-02-07T16:29:34.453Z,99483.03
2024-02-07T16:32:36.419Z,99483.34
2024-02-07T16:35:38.921Z,99483.37
2024-02-07T16:38:41.071Z,99483.81
2024-02-07T16:41:42.871Z,99472.91
2024-02-07T16:44:45.408Z,99479.03
2024-02-07T16:47:47.654Z,99475.69
2024-02-07T16:50:49.453Z,99491.94
2024-02-07T16:53:51.736Z,99478.22
2024-02-07T16:56:57.309Z,99481.50
2024-02-07T16:59:59.920Z,99477.06
2024-02-07T17:03:01.690Z,99485.91
2024-02-07T17:06:04.646Z,99479.62
2024-02-07T17:09:09.677Z,99488.78
2024-02-07T17:12:12.376Z,99483.06
2024-02-07T17:15:14.974Z,99486.12
2024-02-07T17:18:18.233Z,99480.31
2024-02-07T17:21:21.722Z,99476.00
2024-02-07T17:24:23.659Z,99486.69
2024-02-07T17:27:27.328Z,99492.34
2024-02-07T17:30:36.394Z,99499.53
2024-02-07T17:33:44.214Z,99489.47
2024-02-07T17:36:47.211Z,99496.81
2024-02-07T17:39:59.384Z,99490.87
2024-02-07T17:43:03.718Z,99491.13
2024-02-07T17:46:06.342Z,99481.53
2024-02-07T17:49:08.651Z,99476.09
2024-02-07T17:52:13.629Z,99485.63
2024-02-07T17:55:15.903Z,99478.47
2024-02-07T17:58:18.338Z,99479.41
2024-02-07T18:04:37.184Z,99466.91
2024-02-07T18:07:39.177Z,99461.88
2024-02-07T18:10:40.968Z,99452.63
2024-02-07T18:13:52.162Z,99452.44
2024-02-07T18:16:54.610Z,99451.66
2024-02-07T18:19:56.474Z,99447.81
2024-02-07T18:23:02.040Z,99451.41
2024-02-07T18:26:17.381Z,99448.91
2024-02-07T18:29:19.627Z,99451.78
2024-02-07T18:32:24.346Z,99447.13
2024-02-07T18:35:27.140Z,99448.16
2024-02-07T18:41:51.442Z,99443.25
2024-02-07T18:45:10.717Z,99446.97
2024-02-07T18:48:12.576Z,99431.16
2024-02-07T18:51:16.870Z,99438.41
2024-02-07T18:54:19.550Z,99436.28
2024-02-07T18:57:21.778Z,99437.50
2024-02-07T19:00:25.508Z,99435.25
2024-02-07T19:03:27.484Z,99427.72
2024-02-07T19:06:29.943Z,99438.22
2024-02-07T19:09:32.051Z,99441.91
2024-02-07T19:12:36.873Z,99441.28
2024-02-07T19:15:38.916Z,99442.69
2024-02-07T19:18:41.004Z,99438.28
2024-02-07T19:21:43.496Z,99444.13
2024-02-07T19:24:45.916Z,99436.31
2024-02-07T19:27:49.743Z,99438.44
2024-02-07T19:30:51.503Z,99435.75
2024-02-07T19:33:53.523Z,99434.78
2024-02-07T19:36:56.109Z,99438.63
2024-02-07T19:40:10.749Z,99437.66
2024-02-07T19:43:13.759Z,99427.75
2024-02-07T19:46:16.321Z,99433.69
2024-02-07T19:49:18.546Z,99427.75
2024-02-07T19:52:20.391Z,99429.91
2024-02-07T19:55:22.343Z,99433.44
2024-02-07T19:58:25.192Z,99424.69
2024-02-07T20:01:28.744Z,99418.19
2024-02-07T20:04:31.158Z,99431.66
2024-02-07T20:07:33.017Z,99423.88
2024-02-07T20:10:34.710Z,99432.88
2024-02-07T20:13:36.568Z,99418.22
2024-02-07T20:16:38.997Z,99428.31
2024-02-07T20:19:43.535Z,99408.78
2024-02-07T20:22:46.470Z,99417.13
2024-02-07T20:25:55.068Z,99414.41
2024-02-07T20:29:05.753Z,99414.91
2024-02-07T20:32:10.692Z,99416.09
2024-02-07T20:35:12.798Z,99423.88
2024-02-07T20:38:14.590Z,99419.88
2024-02-07T20:41:16.261Z,99426.47
2024-02-07T20:44:18.363Z,99425.25
2024-02-07T20:47:21.268Z,99413.56
2024-02-07T20:50:24.371Z,99421.72
2024-02-07T20:53:26.896Z,99428.69
2024-02-07T20:56:31.477Z,99423.31
2024-02-07T20:59:34.095Z,99433.06
2024-02-07T21:02:36.707Z,99414.59
2024-02-07T21:05:40.309Z,99420.44
2024-02-07T21:08:42.097Z,99416.44
2024-02-07T21:11:44.114Z,99420.63
2024-02-07T21:14:46.936Z,99412.81
2024-02-07T21:17:52.305Z,99415.44
2024-02-07T21:20:56.613Z,99419.59
2024-02-07T21:23:59.409Z,99425.81
2024-02-07T21:27:01.507Z,99410.97
2024-02-07T21:30:13.383Z,99411.16
2024-02-07T21:33:15.512Z,99405.97
2024-02-07T21:36:17.642Z,99405.84
2024-02-07T21:39:19.915Z,99398.16
2024-02-07T21:42:22.003Z,99409.75
2024-02-07T21:45:23.892Z,99401.16
2024-02-07T21:48:29.000Z,99396.41
2024-02-07T21:51:31.192Z,99392.91
2024-02-07T21:54:33.124Z,99384.72
2024-02-07T21:57:35.714Z,99388.88
2024-02-07T22:00:37.704Z,99398.91
2024-02-07T22:03:40.386Z,99390.00
2024-02-07T22:06:43.683Z,99398.28
2024-02-07T22:09:45.696Z,99395.09
2024-02-07T22:12:47.933Z,99395.84
2024-02-07T22:15:51.274Z,99388.12
2024-02-07T22:18:55.956Z,99399.44
2024-02-07T22:21:59.023Z,99399.87
2024-02-07T22:25:01.052Z,99396.72
2024-02-07T22:28:02.787Z,99410.50
2024-02-07T22:31:04.848Z,99393.66
2024-02-07T22:34:07.534Z,99387.50
2024-02-07T22:37:09.924Z,99384.88
2024-02-07T22:40:13.924Z,99386.75
2024-02-07T22:43:16.364Z,99389.44
2024-02-07T22:46:18.028Z,99383.34
2024-02-07T22:49:19.866Z,99374.31
2024-02-07T22:52:21.978Z,99376.53
2024-02-07T22:55:24.303Z,99375.87
2024-02-07T22:58:26.739Z,99376.53
2024-02-07T23:01:29.138Z,99384.94
2024-02-07T23:04:32.164Z,99382.03
2024-02-07T23:07:37.328Z,99377.03
2024-02-07T23:10:39.583Z,99386.75
2024-02-07T23:13:41.725Z,99396.19
2024-02-07T23:16:43.911Z,99400.13
2024-02-07T23:19:46.193Z,99394.50
2024-02-07T23:22:49.040Z,99392.47
2024-02-07T23:25:51.337Z,99397.31
2024-02-07T23:28:53.268Z,99401.03
2024-02-07T23:31:55.524Z,99407.41
2024-02-07T23:34:57.486Z,99408.56
2024-02-07T23:37:59.838Z,99410.25
2024-02-07T23:41:02.598Z,99406.03
2024-02-07T23:44:04.704Z,99406.16
2024-02-07T23:47:07.339Z,99397.38
2024-02-07T23:50:09.326Z,99398.87
2024-02-07T23:53:11.520Z,99393.88
2024-02-07T23:56:13.388Z,99398.66
2024-02-07T23:59:15.444Z,99395.66
